Lexington Weather

Lexington, Massachusetts, USA

40°F
11/27/2020 2:58am 
  • Lexington Conditions: Fog, Overcast
  • Temperature: 39.7°F / 4.3°CColder 0.6°F than last hour.
  • Dew Point: 39.0°FDecreased 0.6°Fsince last hour.
  • Relative Humidity: 97
  • Wind: Calm, 10-min avg: Calm, gust: None
  • Barometer: 29.97 in Steady
  • Visibility: ¼ mile
  • Rain Today: 0.00 in
  •   
Southeast Middlesex County - Special Weather Statement
 - SEE ALL NEARBY ALERTS -

Nearby Reports - Official Weather Stations - Current Conditions

Data from the National Weather Service

KBED - Bedford, MA


Distance from station: WNW 4mi, 6km

Updated Fri Nov 27, 2020 2:51am EST

Fog, Overcast

Fog, Overcast

Wind from calm

Wind:

Calm

Temperature: 36°F (2°C)

Dew Point: 36°F (2°C)

Humidity: 100%

Barometer: 30.01 in (1016.3 hPa)

Summary: Fog

Clouds: Overcast

Visibility: ¼ mile (0 km)

Cloud details: Overcast 200 ft


2020/11/27 07:51 KBED 270751Z AUTO 00000KT 1/4SM R11/1600V2000FT FG VV002 02/02 A3001 RMK AO2 SLP176 T00220017

KBOS - Boston, MA


Distance from station: ESE 12mi, 20km

Updated Fri Nov 27, 2020 1:54am EST

Fog, Overcast

Fog, Overcast

Wind from calm

Wind:

Calm

Temperature: 45°F (7°C)

Dew Point: 45°F (7°C)

Humidity: 100%

Barometer: 30.02 in (1016.6 hPa)

Summary: Fog

Clouds: Overcast

Visibility: ¼ mile (0 km)

Cloud details: Overcast 200 ft


2020/11/27 06:54 KBOS 270654Z 00000KT 1/4SM R04R/1000FT FG VV002 07/07 A3002 RMK AO2 TWR VIS 1/2 SLP163 T00670067

KOWD - Norwood, MA


Distance from station: SSE 18mi, 29km

Updated Fri Nov 27, 2020 1:53am EST

Fog, Overcast

Fog, Overcast

Wind from calm

Wind:

Calm

Temperature: 45°F (7°C)

Dew Point: 43°F (6°C)

Humidity: 93%

Barometer: 30.01 in (1016.3 hPa)

Summary: Fog

Clouds: Overcast

Visibility: ¼ mile (0 km)

Cloud details: Overcast 100 ft


2020/11/27 06:53 KOWD 270653Z AUTO 00000KT 1/4SM FG VV001 07/06 A3001 RMK AO2 SLP161 T00720056

KBVY - Beverly, MA


Distance from station: ENE 19mi, 31km

Updated Fri Nov 27, 2020 1:53am EST

Fog, Overcast

Fog, Overcast

Wind from W

Wind:

W 5 mph, 7 km/h

Temperature: 45°F (7°C)

Wind Chill: 42°F (6°C)

Dew Point: 43°F (6°C)

Humidity: 93%

Barometer: 30.00 in (1015.9 hPa)

Summary: Fog

Clouds: Overcast

Visibility: ¼ mile (0 km)

Cloud details: Overcast 200 ft


2020/11/27 06:53 KBVY 270653Z AUTO 28004KT 1/4SM FG VV002 07/06 A3000 RMK AO2 SLP155 T00670061

KLWM - Lawrence, MA


Distance from station: NNE 20mi, 32km

Updated Fri Nov 27, 2020 1:54am EST

Fog, Overcast

Fog, Overcast

Wind from calm

Wind:

Calm

Temperature: 41°F (5°C)

Dew Point: 41°F (5°C)

Humidity: 100%

Barometer: 30.02 in (1016.6 hPa)

Summary: Fog

Clouds: Overcast

Visibility: ¼ mile (0 km)

Cloud details: Overcast 200 ft


2020/11/27 06:54 KLWM 270654Z AUTO 00000KT 1/4SM FG VV002 05/05 A3002 RMK AO2 SLP168 T00500050

KFIT - Fitchburg, MA


Distance from station: WNW 27mi, 44km

Updated Fri Nov 27, 2020 2:52am EST

Clear

Clear

Wind from calm

Wind:

Calm

Temperature: 34°F (1°C)

Dew Point: 34°F (1°C)

Humidity: 100%

Barometer: 30.02 in (1016.6 hPa)

Clouds: Clear

Visibility: 7 miles (11 km)


2020/11/27 07:52 KFIT 270752Z AUTO 00000KT 7SM CLR 01/01 A3002 RMK AO2 SLP169 T00110006

KASH - Nashua/Boire Fld, NH


Distance from station: NNW 28mi, 44km

Updated Fri Nov 27, 2020 2:46am EST

Fog, Overcast

Fog, Overcast

Wind from calm

Wind:

Calm

Temperature: 36°F (2°C)

Dew Point: 36°F (2°C)

Humidity: 100%

Barometer: 30.02 in (1016.6 hPa)

Summary: Fog

Clouds: Overcast

Visibility: ¼ mile (0 km)

Cloud details: Overcast 200 ft


2020/11/27 07:46 KASH 270746Z AUTO 00000KT 1/4SM FG OVC002 02/02 A3002 RMK AO2

KORH - Worcester, MA


Distance from station: WSW 34mi, 55km

Updated Fri Nov 27, 2020 1:54am EST

Clear

Clear

Wind from W

Wind:

W 13 mph, 20 km/h

Temperature: 50°F (10°C)

Wind Chill: 45°F (7°C)

Dew Point: 46°F (8°C)

Humidity: 88%

Barometer: 30.01 in (1016.3 hPa)

Clouds: Clear

Visibility: 10 miles (16 km)


2020/11/27 06:54 KORH 270654Z AUTO 28011KT 10SM CLR 10/08 A3001 RMK AO2 SLP165 T01000083

KMHT - Manchester, NH


Distance from station: NNW 35mi, 57km

Updated Fri Nov 27, 2020 2:43am EST

Fog, Overcast

Fog, Overcast

Wind from calm

Wind:

Calm

Temperature: 37°F (3°C)

Dew Point: 36°F (2°C)

Humidity: 93%

Barometer: 30.00 in (1015.9 hPa)

Summary: Fog

Clouds: Overcast

Visibility: ¼ mile (0 km)

Cloud details: Overcast 100 ft


2020/11/27 07:43 KMHT 270743Z 00000KT 1/4SM R35/1600V2600FT FG VV001 03/02 A3000 RMK AO2 SFC VIS 1/2 T00330022

KGHG - Marshfield, MA


Distance from station: SE 38mi, 60km

Updated Fri Nov 27, 2020 2:35am EST

Fog, Overcast

Fog, Overcast

Wind from calm

Wind:

Calm

Temperature: 50°F (10°C)

Dew Point: 50°F (10°C)

Humidity: 100%

Barometer: 30.01 in (1016.3 hPa)

Summary: Fog

Clouds: Overcast

Visibility: less than ¼ mile (0 km)

Cloud details: Overcast 200 ft


2020/11/27 07:35 KGHG 270735Z AUTO 00000KT M1/4SM FG OVC002 10/10 A3001 RMK AO2

KSFZ - Pawtucket, RI


Distance from station: SSW 39mi, 62km

Updated Fri Nov 27, 2020 1:56am EST

Clear

Clear

Wind from W

Wind:

W 6 mph, 9 km/h

Temperature: 50°F (10°C)

Wind Chill: 48°F (9°C)

Dew Point: 50°F (10°C)

Humidity: 100%

Barometer: 30.02 in (1016.6 hPa)

Clouds: Clear

Visibility: 10 miles (16 km)


2020/11/27 06:56 KSFZ 270656Z AUTO 27005KT 10SM CLR 10/10 A3002 RMK AO2 SLP112 T01000100

KTAN - Taunton, MA


Distance from station: SSE 40mi, 65km

Updated Fri Nov 27, 2020 2:52am EST

Fog, Overcast

Fog, Overcast

Wind from calm

Wind:

Calm

Temperature: 45°F (7°C)

Dew Point: 41°F (5°C)

Humidity: 87%

Barometer: 30.01 in (1016.3 hPa)

Summary: Fog

Clouds: Overcast

Visibility: ½ mile (1 km)

Cloud details: Overcast 100 ft


2020/11/27 07:52 KTAN 270752Z AUTO 00000KT 1/2SM FG VV001 07/05 A3001 RMK AO2 SLP163 T00670050 $

KPYM - Plymouth, MA


Distance from station: SE 44mi, 72km

Updated Fri Nov 27, 2020 2:52am EST

Fog, Overcast

Fog, Overcast

Wind from calm

Wind:

Calm

Temperature: 46°F (8°C)

Dew Point: 46°F (8°C)

Humidity: 100%

Barometer: 30.01 in (1016.3 hPa)

Summary: Fog

Clouds: Overcast

Visibility: ¼ mile (0 km)

Cloud details: Overcast 100 ft


2020/11/27 07:52 KPYM 270752Z AUTO 00000KT 1/4SM FG VV001 08/08 A3001 RMK AO2 SLP164 T00830078

KAFN - Jaffrey, NH


Distance from station: WNW 46mi, 74km

Updated Fri Nov 27, 2020 2:52am EST

Partly cloudy

Partly cloudy

Wind from S

Wind:

S 6 mph, 9 km/h

Temperature: 37°F (3°C)

Wind Chill: 32°F (0°C)

Dew Point: 36°F (2°C)

Humidity: 93%

Barometer: 30.01 in (1016.3 hPa)

Clouds: Partly cloudy

Visibility: 7 miles (11 km)

Cloud details: Few Clouds 100 ft
Partly cloudy 2800 ft


2020/11/27 07:52 KAFN 270752Z AUTO 18005KT 7SM FEW001 SCT028 03/02 A3001 RMK AO2 SLP176 T00330022

KPSM - Portsmouth/Pease, NH


Distance from station: NNE 48mi, 78km

Updated Fri Nov 27, 2020 1:56am EST

Fog, Overcast

Fog, Overcast

Wind from WSW

Wind:

WSW 6 mph, 9 km/h

Temperature: 39°F (4°C)

Wind Chill: 35°F (2°C)

Dew Point: 37°F (3°C)

Humidity: 93%

Barometer: 29.98 in (1015.2 hPa)

Summary: Fog

Clouds: Overcast

Visibility: 3/16 mile (0 km)

Cloud details: Overcast 100 ft


2020/11/27 06:56 KPSM 270656Z 24005KT 3/16SM R34/3000V3500FT FG VV001 04/03 A2998 RMK AO2A SLP156 T00350034

KPVD - Providence/Green, RI


Distance from station: S 51mi, 82km

Updated Fri Nov 27, 2020 2:51am EST

Mist, Clear

Mist, Clear

Wind from SW

Wind:

SW 5 mph, 7 km/h

Temperature: 46°F (8°C)

Wind Chill: 44°F (7°C)

Dew Point: 46°F (8°C)

Humidity: 100%

Barometer: 30.03 in (1016.9 hPa)

Summary: Mist

Clouds: Clear

Visibility: 1 mile (2 km)


2020/11/27 07:51 KPVD 270751Z AUTO 23004KT 1SM R05/P6000FT BR CLR 08/08 A3003 RMK AO2 SLP168 T00830083 $

KCON - Concord, NH


Distance from station: NNW 54mi, 87km

Updated Fri Nov 27, 2020 2:51am EST

Fog, Overcast

Fog, Overcast

Wind from N

Wind:

N 5 mph, 7 km/h

Temperature: 37°F (3°C)

Wind Chill: 33°F (1°C)

Dew Point: 36°F (2°C)

Humidity: 93%

Barometer: 30.02 in (1016.6 hPa)

Summary: Fog

Clouds: Overcast

Visibility: ¼ mile (0 km)

Cloud details: Overcast 200 ft


2020/11/27 07:51 KCON 270751Z AUTO 36004KT 1/4SM FG VV002 03/02 A3002 RMK AO2 SLP168 T00330022

KEWB - New Bedford, MA


Distance from station: SSE 54mi, 87km

Updated Fri Nov 27, 2020 1:53am EST

Fog, Overcast

Fog, Overcast

Wind from calm

Wind:

Calm

Temperature: 46°F (8°C)

Dew Point: 46°F (8°C)

Humidity: 100%

Barometer: 30.01 in (1016.3 hPa)

Summary: Fog

Clouds: Overcast

Visibility: ½ mile (1 km)

Cloud details: Overcast 200 ft


2020/11/27 06:53 KEWB 270653Z AUTO 00000KT 1/2SM R05/1600VP6000FT FG VV002 08/08 A3001 RMK AO2 SLP161 T00830078

KORE - Orange, Massachusetts, USA


Distance from station: W 54mi, 87km

Updated Fri Nov 27, 2020 2:52am EST

Fog, Overcast

Fog, Overcast

Wind from calm

Wind:

Calm

Temperature: 39°F (4°C)

Dew Point: 39°F (4°C)

Humidity: 100%

Barometer: 30.04 in (1017.3 hPa)

Summary: Fog

Clouds: Overcast

Visibility: ¼ mile (0 km)

Cloud details: Overcast 200 ft


2020/11/27 07:52 KORE 270752Z AUTO 00000KT 1/4SM FG VV002 04/04 A3004 RMK AO2 SLP176 T00440044

KCEF - Chicopee/Westover, Massachusetts, USA


Distance from station: WSW 67mi, 108km

Updated Fri Nov 27, 2020 2:39am EST

Mist, Mostly cloudy

Mist, Mostly cloudy

Wind from calm

Wind:

Calm

Temperature: 37°F (3°C)

Dew Point: 37°F (3°C)

Humidity: 100%

Barometer: 30.03 in (1016.9 hPa)

Summary: Mist

Clouds: Mostly cloudy

Visibility: ¾ mile (1 km)

Cloud details: Mostly cloudy 0 ft


2020/11/27 07:39 KCEF 270739Z AUTO 00000KT 3/4SM R33/2400VP6000FT BR BKN000 03/03 A3003 RMK AO2 BKN V SCT SLP177

KMWN - Mount Washington, NH


Distance from station: N 126mi, 203km

Updated Fri Nov 27, 2020 1:53am EST

Fog, Overcast

Fog, Overcast

Wind from NW

Wind:

NW 41 mph, 67 km/h

Temperature: 34°F (1°C)

Wind Chill: 18°F (-8°C)

Dew Point: 34°F (1°C)

Humidity: 100%

Summary: Fog

Clouds: Overcast

Visibility: 1/16 mile (0 km)

Cloud details: Overcast 100 ft


2020/11/27 06:53 KMWN 270653Z 31036KT 1/16SM FG VV001 01/01 RMK